createdAt,value
2023-04-02T00:02:21.563Z,56.23
2023-04-02T00:05:07.860Z,63.13
2023-04-02T00:07:34.168Z,38.50
2023-04-02T00:10:00.528Z,58.43
2023-04-02T00:12:26.841Z,127.13
2023-04-02T00:14:54.371Z,72.03
2023-04-02T00:17:23.032Z,34.93
2023-04-02T00:19:54.481Z,56.43
2023-04-02T00:22:22.552Z,31.47
2023-04-02T00:24:53.770Z,37.77
2023-04-02T00:27:20.831Z,103.53
2023-04-02T00:29:48.353Z,38.30
2023-04-02T00:32:20.655Z,51.27
2023-04-02T00:34:46.990Z,31.07
2023-04-02T00:37:18.304Z,41.70
2023-04-02T00:39:44.681Z,29.73
2023-04-02T00:42:12.445Z,27.83
2023-04-02T00:44:43.150Z,35.40
2023-04-02T00:47:20.128Z,29.97
2023-04-02T00:49:46.472Z,232.03
2023-04-02T00:52:16.975Z,49.83
2023-04-02T00:54:45.766Z,49.57
2023-04-02T00:57:14.850Z,29.37
2023-04-02T00:59:51.012Z,56.43
2023-04-02T01:02:18.445Z,53.00
2023-04-02T01:04:55.408Z,72.67
2023-04-02T01:07:40.454Z,59.70
2023-04-02T01:10:32.930Z,37.95
2023-04-02T01:13:02.024Z,46.57
2023-04-02T01:15:37.060Z,74.67
2023-04-02T01:20:29.980Z,40.83
2023-04-02T01:22:56.315Z,34.47
2023-04-02T01:25:26.615Z,52.17
2023-04-02T01:28:19.530Z,33.33
2023-04-02T01:31:06.266Z,87.47
2023-04-02T01:33:33.662Z,124.80
2023-04-02T01:36:11.157Z,79.17
2023-04-02T01:38:41.661Z,43.37
2023-04-02T01:41:10.986Z,74.13
2023-04-02T01:43:42.099Z,47.90
2023-04-02T01:46:27.173Z,56.73
2023-04-02T01:48:54.293Z,38.03
2023-04-02T01:51:28.823Z,41.30
2023-04-02T01:53:56.250Z,39.80
2023-04-02T01:56:22.953Z,41.23
2023-04-02T01:58:49.527Z,37.67
2023-04-02T02:01:18.500Z,39.67
2023-04-02T02:03:45.532Z,40.80
2023-04-02T02:06:13.265Z,61.13
2023-04-02T02:08:58.523Z,78.93
2023-04-02T02:11:27.103Z,33.35
2023-04-02T02:13:55.519Z,63.20
2023-04-02T02:16:21.971Z,53.63
2023-04-02T02:18:52.556Z,36.43
2023-04-02T02:21:30.101Z,34.47
2023-04-02T02:23:57.052Z,88.77
2023-04-02T02:26:24.212Z,53.17
2023-04-02T02:28:51.399Z,36.37
2023-04-02T02:31:19.822Z,46.67
2023-04-02T02:33:48.990Z,134.83
2023-04-02T02:36:15.601Z,41.17
2023-04-02T02:38:45.496Z,52.53
2023-04-02T02:41:16.033Z,37.77
2023-04-02T02:43:45.553Z,36.73
2023-04-02T02:46:16.919Z,68.47
2023-04-02T02:48:43.804Z,42.23
2023-04-02T02:51:17.826Z,123.83
2023-04-02T02:53:46.613Z,65.03
2023-04-02T02:56:13.445Z,66.47
2023-04-02T02:58:39.838Z,37.50
2023-04-02T03:01:06.290Z,34.90
2023-04-02T03:03:34.435Z,43.67
2023-04-02T03:06:03.211Z,35.60
2023-04-02T03:08:34.494Z,45.80
2023-04-02T03:11:05.301Z,76.73
2023-04-02T03:13:33.169Z,107.27
2023-04-02T03:16:02.553Z,50.33
2023-04-02T03:18:35.328Z,45.93
2023-04-02T03:21:15.502Z,41.17
2023-04-02T03:23:51.231Z,47.13
2023-04-02T03:26:28.073Z,34.80
2023-04-02T03:29:00.853Z,41.10
2023-04-02T03:31:31.317Z,29.40
2023-04-02T03:34:19.095Z,51.67
2023-04-02T03:36:56.715Z,35.10
2023-04-02T03:39:27.186Z,59.37
2023-04-02T03:42:09.196Z,66.80
2023-04-02T03:44:38.170Z,44.83
2023-04-02T03:47:10.679Z,55.33
2023-04-02T03:49:41.132Z,74.40
2023-04-02T03:52:33.548Z,32.90
2023-04-02T03:55:01.208Z,43.90
2023-04-02T03:57:33.718Z,132.77
2023-04-02T04:00:07.216Z,36.73
2023-04-02T04:02:38.917Z,85.07
2023-04-02T04:05:06.759Z,111.30
2023-04-02T04:07:35.514Z,106.80
2023-04-02T04:10:02.711Z,103.33
2023-04-02T04:12:55.346Z,78.40
2023-04-02T04:15:27.271Z,53.57
2023-04-02T04:18:02.315Z,108.87
2023-04-02T04:20:28.885Z,101.93
2023-04-02T04:22:56.128Z,49.33
2023-04-02T04:25:29.715Z,31.60
2023-04-02T04:28:05.610Z,74.43
2023-04-02T04:30:36.515Z,105.07
2023-04-02T04:33:05.688Z,23.47
2023-04-02T04:35:37.852Z,30.13
2023-04-02T04:38:07.590Z,44.10
2023-04-02T04:40:36.166Z,58.40
2023-04-02T04:43:05.519Z,47.37
2023-04-02T04:45:31.881Z,102.97
2023-04-02T04:48:01.285Z,33.67
2023-04-02T04:50:32.843Z,33.93
2023-04-02T04:53:05.464Z,27.23
2023-04-02T04:55:39.612Z,25.80
2023-04-02T04:58:16.832Z,108.27
2023-04-02T05:00:58.181Z,21.07
2023-04-02T05:03:39.712Z,25.23
2023-04-02T05:06:09.384Z,68.33
2023-04-02T05:08:38.901Z,60.60
2023-04-02T05:11:14.677Z,47.23
2023-04-02T05:13:53.473Z,22.30
2023-04-02T05:16:27.120Z,77.47
2023-04-02T05:18:56.529Z,26.93
2023-04-02T05:21:23.948Z,35.30
2023-04-02T05:23:55.989Z,46.67
2023-04-02T05:26:25.740Z,27.17
2023-04-02T05:28:52.092Z,40.10
2023-04-02T05:31:20.037Z,41.57
2023-04-02T05:33:47.730Z,31.57
2023-04-02T05:36:22.236Z,33.33
2023-04-02T05:38:49.568Z,68.53
2023-04-02T05:41:36.899Z,39.83
2023-04-02T05:44:06.033Z,61.53
2023-04-02T05:46:37.029Z,29.87
2023-04-02T05:49:05.035Z,61.43
2023-04-02T05:51:51.598Z,31.70
2023-04-02T05:54:28.477Z,32.10
2023-04-02T05:56:57.878Z,29.67
2023-04-02T05:59:32.736Z,76.13
2023-04-02T06:02:00.468Z,60.55
2023-04-02T06:04:36.248Z,76.17
2023-04-02T06:07:09.992Z,57.37
2023-04-02T06:09:45.413Z,52.93
2023-04-02T06:12:17.668Z,34.03
2023-04-02T06:14:44.582Z,43.87
2023-04-02T06:17:14.259Z,54.97
2023-04-02T06:19:40.812Z,31.40
2023-04-02T06:22:20.558Z,28.27
2023-04-02T06:24:49.290Z,26.60
2023-04-02T06:27:19.961Z,31.27
2023-04-02T06:29:48.429Z,40.13
2023-04-02T06:32:14.731Z,22.53
2023-04-02T06:34:41.958Z,45.37
2023-04-02T06:37:14.311Z,27.67
2023-04-02T06:39:40.634Z,30.67
2023-04-02T06:42:07.530Z,40.23
2023-04-02T06:44:37.370Z,25.93
2023-04-02T06:47:03.715Z,27.57
2023-04-02T06:49:36.316Z,37.80
2023-04-02T06:52:04.301Z,14.10
2023-04-02T06:54:31.277Z,26.20
2023-04-02T06:56:57.715Z,19.13
2023-04-02T06:59:24.238Z,34.73
2023-04-02T07:01:52.238Z,70.47
2023-04-02T07:04:19.699Z,30.00
2023-04-02T07:06:46.620Z,24.03
2023-04-02T07:09:13.097Z,25.77
2023-04-02T07:11:39.593Z,23.60
2023-04-02T07:14:06.246Z,69.70
2023-04-02T07:16:33.557Z,23.30
2023-04-02T07:18:59.943Z,42.57
2023-04-02T07:21:26.817Z,81.10
2023-04-02T07:23:53.939Z,24.27
2023-04-02T07:26:22.821Z,18.13
2023-04-02T07:28:49.841Z,28.10
2023-04-02T07:31:26.330Z,40.37
2023-04-02T07:33:53.901Z,41.43
2023-04-02T07:36:22.087Z,39.60
2023-04-02T07:38:48.680Z,191.50
2023-04-02T07:41:15.037Z,41.83
2023-04-02T07:43:41.904Z,95.57
2023-04-02T07:46:09.412Z,29.13
2023-04-02T07:48:35.812Z,62.57
2023-04-02T07:51:03.346Z,21.57
2023-04-02T07:53:33.747Z,22.57
2023-04-02T07:56:01.510Z,25.33
2023-04-02T07:58:28.231Z,12.50
2023-04-02T08:00:54.616Z,45.43
2023-04-02T08:03:21.814Z,35.53
2023-04-02T08:05:55.441Z,27.70
2023-04-02T08:08:22.604Z,5.30
2023-04-02T08:10:49.319Z,10.10
2023-04-02T08:13:16.179Z,67.83
2023-04-02T08:15:42.985Z,43.33
2023-04-02T08:18:10.003Z,34.63
2023-04-02T08:20:36.605Z,111.27
2023-04-02T08:23:03.266Z,43.63
2023-04-02T08:25:29.579Z,172.47
2023-04-02T08:27:56.251Z,44.03
2023-04-02T08:30:22.621Z,62.57
2023-04-02T08:32:48.952Z,24.70
2023-04-02T08:35:16.385Z,37.67
2023-04-02T08:37:43.122Z,26.77
2023-04-02T08:40:18.460Z,45.67
2023-04-02T08:42:50.110Z,30.77
2023-04-02T08:45:25.365Z,38.27
2023-04-02T08:47:55.289Z,2.83
2023-04-02T08:50:22.024Z,18.23
2023-04-02T08:52:48.496Z,25.73
2023-04-02T08:55:35.340Z,16.43
2023-04-02T08:58:06.446Z,17.43
2023-04-02T09:00:37.812Z,15.83
2023-04-02T09:03:15.508Z,38.33
2023-04-02T09:05:42.998Z,19.17
2023-04-02T09:08:16.042Z,23.57
2023-04-02T09:10:54.798Z,60.23
2023-04-02T09:13:23.765Z,17.90
2023-04-02T09:15:52.635Z,21.83
2023-04-02T09:18:19.918Z,25.87
2023-04-02T09:20:48.141Z,48.47
2023-04-02T09:23:22.310Z,22.63
2023-04-02T09:26:02.967Z,23.97
2023-04-02T09:28:30.241Z,20.77
2023-04-02T09:31:00.142Z,43.30
2023-04-02T09:33:46.092Z,20.53
2023-04-02T09:36:18.358Z,26.77
2023-04-02T09:39:06.548Z,29.27
2023-04-02T09:41:36.680Z,33.70
2023-04-02T09:44:21.163Z,13.83
2023-04-02T09:46:54.903Z,25.87
2023-04-02T09:49:23.065Z,32.17
2023-04-02T09:52:28.020Z,29.10
2023-04-02T09:55:12.964Z,30.83
2023-04-02T09:57:39.272Z,28.02
2023-04-02T10:00:25.252Z,16.17
2023-04-02T10:03:05.600Z,21.30
2023-04-02T10:05:40.485Z,17.55
2023-04-02T10:08:09.119Z,21.43
2023-04-02T10:10:41.005Z,30.17
2023-04-02T10:13:27.568Z,52.43
2023-04-02T10:16:12.285Z,70.97
2023-04-02T10:18:48.043Z,23.58
2023-04-02T10:21:18.641Z,16.33
2023-04-02T10:23:45.351Z,80.37
2023-04-02T10:26:11.679Z,91.80
2023-04-02T10:28:42.416Z,82.17
2023-04-02T10:31:17.379Z,95.23
2023-04-02T10:33:47.370Z,70.18
2023-04-02T10:36:49.064Z,116.50
2023-04-02T10:39:19.997Z,49.17
2023-04-02T10:41:46.751Z,62.07
2023-04-02T10:44:20.707Z,82.97
2023-04-02T10:47:00.702Z,54.43
2023-04-02T10:49:40.983Z,63.30
2023-04-02T10:52:10.826Z,53.83
2023-04-02T10:54:43.180Z,92.57
2023-04-02T10:57:21.788Z,82.70
2023-04-02T11:00:09.061Z,101.47
2023-04-02T11:02:41.794Z,138.40
2023-04-02T11:05:23.824Z,103.17
2023-04-02T11:07:53.269Z,66.50
2023-04-02T11:10:20.326Z,76.70
2023-04-02T11:12:50.576Z,82.07
2023-04-02T11:15:17.996Z,84.90
2023-04-02T11:17:44.911Z,167.43
2023-04-02T11:20:30.277Z,147.53
2023-04-02T11:23:09.924Z,101.05
2023-04-02T11:25:36.748Z,91.47
2023-04-02T11:28:41.783Z,89.70
2023-04-02T11:31:08.128Z,82.00
2023-04-02T11:33:39.111Z,98.27
2023-04-02T11:36:26.621Z,62.17
2023-04-02T11:38:54.907Z,96.72
2023-04-02T11:41:41.285Z,101.60
2023-04-02T11:44:21.512Z,118.90
2023-04-02T11:46:47.990Z,92.67
2023-04-02T11:49:34.387Z,89.47
2023-04-02T11:52:11.521Z,129.13
2023-04-02T11:54:39.229Z,86.00
2023-04-02T11:57:44.245Z,70.07
2023-04-02T12:00:29.311Z,70.90
2023-04-02T12:03:04.554Z,78.22
2023-04-02T12:08:05.159Z,56.70
2023-04-02T12:10:51.313Z,76.00
2023-04-02T12:13:36.466Z,115.40
2023-04-02T12:16:02.921Z,55.72
2023-04-02T12:18:29.289Z,50.53
2023-04-02T12:20:56.366Z,58.53
2023-04-02T12:23:25.718Z,62.73
2023-04-02T12:25:59.225Z,64.77
2023-04-02T12:28:29.163Z,78.63
2023-04-02T12:31:11.560Z,62.83
2023-04-02T12:33:38.712Z,71.40
2023-04-02T12:36:25.551Z,54.13
2023-04-02T12:38:56.552Z,63.23
2023-04-02T12:41:29.943Z,74.93
2023-04-02T12:43:57.457Z,100.80
2023-04-02T12:46:25.944Z,99.33
2023-04-02T12:48:53.910Z,73.10
2023-04-02T12:51:20.633Z,87.97
2023-04-02T12:53:51.737Z,56.57
2023-04-02T12:56:19.194Z,86.93
2023-04-02T12:58:51.862Z,83.67
2023-04-02T13:01:23.691Z,67.07
2023-04-02T13:04:12.163Z,63.37
2023-04-02T13:06:39.553Z,55.00
2023-04-02T13:09:07.558Z,44.53
2023-04-02T13:11:38.116Z,51.07
2023-04-02T13:14:06.163Z,67.20
2023-04-02T13:16:34.097Z,57.10
2023-04-02T13:19:11.888Z,45.00
2023-04-02T13:21:38.576Z,59.77
2023-04-02T13:24:05.120Z,42.00
2023-04-02T13:26:31.447Z,45.70
2023-04-02T13:29:00.722Z,48.73
2023-04-02T13:31:27.813Z,53.17
2023-04-02T13:33:54.245Z,66.80
2023-04-02T13:36:20.655Z,54.03
2023-04-02T13:38:47.063Z,53.40
2023-04-02T13:41:33.620Z,35.47
2023-04-02T13:44:01.232Z,48.33
2023-04-02T13:46:29.151Z,32.83
2023-04-02T13:48:55.861Z,34.13
2023-04-02T13:51:31.783Z,27.10
2023-04-02T13:53:58.188Z,39.60
2023-04-02T13:56:24.795Z,45.30
2023-04-02T13:58:51.555Z,28.63
2023-04-02T14:01:19.449Z,27.35
2023-04-02T14:03:46.116Z,67.70
2023-04-02T14:06:28.923Z,14.48
2023-04-02T14:08:55.830Z,17.30
2023-04-02T14:11:41.306Z,35.65
2023-04-02T14:14:22.949Z,30.38
2023-04-02T14:17:07.991Z,29.30
2023-04-02T14:19:54.654Z,22.40
2023-04-02T14:22:44.273Z,12.02
2023-04-02T14:25:13.633Z,18.70
2023-04-02T14:27:40.385Z,31.17
2023-04-02T14:30:06.891Z,27.07
2023-04-02T14:32:48.983Z,16.07
2023-04-02T14:35:24.620Z,24.95
2023-04-02T14:38:03.778Z,14.90
2023-04-02T14:40:46.188Z,11.10
2023-04-02T14:43:17.278Z,8.93
2023-04-02T14:46:00.129Z,16.77
2023-04-02T14:48:37.562Z,17.70
2023-04-02T14:51:07.536Z,9.80
2023-04-02T14:53:44.389Z,16.13
2023-04-02T14:56:12.648Z,13.50
2023-04-02T14:58:42.340Z,15.23
2023-04-02T15:01:13.977Z,16.77
2023-04-02T15:03:48.408Z,13.13
2023-04-02T15:06:19.393Z,16.13
2023-04-02T15:08:58.613Z,7.10
2023-04-02T15:11:41.580Z,7.15
2023-04-02T15:14:07.952Z,7.18
2023-04-02T15:16:36.420Z,9.85
2023-04-02T15:19:03.965Z,9.48
2023-04-02T15:21:30.349Z,4.65
2023-04-02T15:24:17.035Z,10.40
2023-04-02T15:26:55.886Z,20.13
2023-04-02T15:29:28.744Z,6.03
2023-04-02T15:32:00.868Z,8.52
2023-04-02T15:34:38.394Z,6.38
2023-04-02T15:37:12.613Z,5.95
2023-04-02T15:39:51.361Z,6.00
2023-04-02T15:42:19.928Z,7.78
2023-04-02T15:45:09.553Z,9.13
2023-04-02T15:47:36.816Z,6.30
2023-04-02T15:50:15.144Z,28.83
2023-04-02T15:53:04.466Z,30.40
2023-04-02T15:55:44.114Z,32.10
2023-04-02T15:58:29.038Z,29.92
2023-04-02T16:01:08.448Z,30.77
2023-04-02T16:03:53.863Z,19.27
2023-04-02T16:06:25.502Z,21.23
2023-04-02T16:09:10.579Z,17.90
2023-04-02T16:11:36.903Z,11.15
2023-04-02T16:14:12.141Z,15.07
2023-04-02T16:19:16.560Z,6.00
2023-04-02T16:21:49.032Z,5.43
2023-04-02T16:24:15.345Z,10.55
2023-04-02T16:26:41.633Z,14.50
2023-04-02T16:29:23.008Z,10.35
2023-04-02T16:32:15.696Z,7.50
2023-04-02T16:34:41.980Z,4.97
2023-04-02T16:37:16.479Z,6.97
2023-04-02T16:39:48.705Z,5.45
2023-04-02T16:42:20.986Z,5.20
2023-04-02T16:44:50.350Z,5.78
2023-04-02T16:47:22.387Z,4.78
2023-04-02T16:50:07.983Z,6.20
2023-04-02T16:55:23.291Z,5.47
2023-04-02T16:58:08.597Z,5.23
2023-04-02T17:00:37.924Z,8.55
2023-04-02T17:03:23.092Z,8.35
2023-04-02T17:06:01.603Z,6.07
2023-04-02T17:08:32.121Z,5.50
2023-04-02T17:11:02.476Z,6.47
2023-04-02T17:13:37.402Z,7.13
2023-04-02T17:16:13.181Z,6.30
2023-04-02T17:18:41.665Z,22.48
2023-04-02T17:21:11.050Z,15.57
2023-04-02T17:23:56.012Z,7.05
2023-04-02T17:26:24.751Z,12.70
2023-04-02T17:28:51.321Z,6.97
2023-04-02T17:31:17.673Z,7.90
2023-04-02T17:33:44.017Z,6.27
2023-04-02T17:36:13.590Z,8.40
2023-04-02T17:38:42.670Z,11.93
2023-04-02T17:41:44.481Z,10.57
2023-04-02T17:44:22.437Z,7.60
2023-04-02T17:47:07.637Z,7.70
2023-04-02T17:49:54.184Z,6.70
2023-04-02T17:52:27.098Z,11.77
2023-04-02T17:55:12.349Z,10.10
2023-04-02T17:57:50.708Z,7.53
2023-04-02T18:00:22.399Z,8.97
2023-04-02T18:03:01.026Z,8.80
2023-04-02T18:05:32.802Z,8.18
2023-04-02T18:08:01.945Z,9.30
2023-04-02T18:10:48.502Z,9.73
2023-04-02T18:13:28.264Z,7.83
2023-04-02T18:16:06.766Z,7.23
2023-04-02T18:18:42.393Z,8.37
2023-04-02T18:21:08.776Z,7.83
2023-04-02T18:23:44.152Z,9.27
2023-04-02T18:26:29.254Z,8.00
2023-04-02T18:29:07.720Z,9.50
2023-04-02T18:31:40.473Z,8.90
2023-04-02T18:34:11.144Z,10.03
2023-04-02T18:36:46.800Z,7.63
2023-04-02T18:39:13.096Z,9.60
2023-04-02T18:41:39.394Z,7.70
2023-04-02T18:44:14.864Z,8.60
2023-04-02T18:46:48.901Z,7.67
2023-04-02T18:49:15.524Z,8.53
2023-04-02T18:51:41.966Z,8.37
2023-04-02T18:54:18.355Z,8.90
2023-04-02T18:56:44.867Z,10.97
2023-04-02T18:59:33.432Z,11.63
2023-04-02T19:02:03.135Z,9.03
2023-04-02T19:04:32.782Z,13.13
2023-04-02T19:07:11.685Z,8.80
2023-04-02T19:09:43.477Z,8.03
2023-04-02T19:12:18.952Z,9.13
2023-04-02T19:14:46.493Z,10.13
2023-04-02T19:17:42.474Z,10.40
2023-04-02T19:22:53.991Z,7.77
2023-04-02T19:25:38.806Z,9.45
2023-04-02T19:28:12.725Z,11.93
2023-04-02T19:30:42.944Z,10.97
2023-04-02T19:33:18.391Z,11.30
2023-04-02T19:35:53.861Z,11.47
2023-04-02T19:38:26.661Z,10.37
2023-04-02T19:40:59.156Z,11.53
2023-04-02T19:43:25.514Z,9.77
2023-04-02T19:45:53.995Z,10.03
2023-04-02T19:48:21.683Z,10.97
2023-04-02T19:50:48.879Z,10.57
2023-04-02T19:53:15.689Z,9.13
2023-04-02T19:55:42.320Z,11.07
2023-04-02T19:58:28.078Z,10.60
2023-04-02T20:00:54.696Z,10.83
2023-04-02T20:03:21.076Z,10.00
2023-04-02T20:05:47.540Z,9.23
2023-04-02T20:08:14.010Z,9.00
2023-04-02T20:10:40.674Z,10.00
2023-04-02T20:13:07.445Z,10.77
2023-04-02T20:15:34.325Z,11.47
2023-04-02T20:18:01.099Z,10.20
2023-04-02T20:20:27.462Z,10.03
2023-04-02T20:22:53.761Z,11.73
2023-04-02T20:25:20.171Z,10.43
2023-04-02T20:27:46.608Z,11.80
2023-04-02T20:30:13.030Z,10.07
2023-04-02T20:32:40.422Z,8.83
2023-04-02T20:35:06.997Z,8.83
2023-04-02T20:37:33.331Z,11.03
2023-04-02T20:39:59.670Z,10.53
2023-04-02T20:42:26.530Z,12.23
2023-04-02T20:44:52.825Z,11.10
2023-04-02T20:47:19.468Z,10.60
2023-04-02T20:49:45.865Z,11.07
2023-04-02T20:52:12.370Z,11.60
2023-04-02T20:54:38.786Z,10.23
2023-04-02T20:57:05.105Z,9.67
2023-04-02T20:59:31.645Z,8.57
2023-04-02T21:01:58.070Z,10.00
2023-04-02T21:04:24.571Z,9.57
2023-04-02T21:06:56.731Z,10.03
2023-04-02T21:09:23.109Z,10.70
2023-04-02T21:11:49.941Z,10.20
2023-04-02T21:14:16.700Z,13.17
2023-04-02T21:16:43.073Z,11.60
2023-04-02T21:19:09.558Z,12.73
2023-04-02T21:21:36.858Z,10.67
2023-04-02T21:24:04.745Z,12.77
2023-04-02T21:26:33.426Z,11.07
2023-04-02T21:29:01.283Z,13.13
2023-04-02T21:31:29.057Z,12.97
2023-04-02T21:33:56.221Z,11.23
2023-04-02T21:36:24.021Z,9.60
2023-04-02T21:38:51.678Z,12.73
2023-04-02T21:41:27.956Z,12.20
2023-04-02T21:43:54.991Z,13.73
2023-04-02T21:46:23.399Z,13.70
2023-04-02T21:48:50.263Z,12.57
2023-04-02T21:51:21.777Z,12.73
2023-04-02T21:53:48.418Z,10.40
2023-04-02T21:56:16.648Z,10.63
2023-04-02T21:58:45.853Z,11.23
2023-04-02T22:01:23.912Z,11.03
2023-04-02T22:03:53.139Z,15.60
2023-04-02T22:06:20.802Z,10.53
2023-04-02T22:08:48.009Z,12.13
2023-04-02T22:11:16.364Z,11.80
2023-04-02T22:13:43.928Z,9.67
2023-04-02T22:16:12.158Z,10.67
2023-04-02T22:18:38.788Z,9.03
2023-04-02T22:21:05.369Z,10.80
2023-04-02T22:23:33.154Z,10.13
2023-04-02T22:25:59.884Z,9.20
2023-04-02T22:28:26.859Z,9.63
2023-04-02T22:30:53.733Z,11.23
2023-04-02T22:33:20.085Z,9.47
2023-04-02T22:35:50.586Z,11.60
2023-04-02T22:38:17.234Z,18.13
2023-04-02T22:40:43.573Z,13.20
2023-04-02T22:43:09.863Z,10.23
2023-04-02T22:45:36.176Z,11.33
2023-04-02T22:48:02.578Z,10.03
2023-04-02T22:50:28.962Z,9.83
2023-04-02T22:52:55.874Z,9.17
2023-04-02T22:55:22.381Z,9.77
2023-04-02T22:57:48.719Z,11.27
2023-04-02T23:00:16.037Z,11.83
2023-04-02T23:02:42.372Z,12.97
2023-04-02T23:05:08.998Z,15.07
2023-04-02T23:07:35.425Z,10.70
2023-04-02T23:10:03.833Z,9.50
2023-04-02T23:12:30.964Z,22.90
2023-04-02T23:14:58.009Z,12.27
2023-04-02T23:17:24.316Z,13.80
2023-04-02T23:19:50.743Z,11.90
2023-04-02T23:22:17.034Z,13.03
2023-04-02T23:24:43.333Z,10.97
2023-04-02T23:27:09.630Z,9.20
2023-04-02T23:29:35.921Z,9.17
2023-04-02T23:32:02.302Z,10.23
2023-04-02T23:34:28.593Z,13.97
2023-04-02T23:36:54.900Z,11.47
2023-04-02T23:39:22.963Z,12.90
2023-04-02T23:41:49.261Z,10.03
2023-04-02T23:44:15.880Z,10.60
2023-04-02T23:46:42.232Z,8.67
2023-04-02T23:49:10.077Z,16.93
2023-04-02T23:51:36.399Z,9.70
2023-04-02T23:54:02.696Z,12.50
2023-04-02T23:56:29.060Z,13.47
2023-04-02T23:58:55.385Z,14.37
